sensor_id;sensor_type;location;lat;lon;timestamp;pressure;altitude;pressure_sealevel;temperature;humidity
34065;BME280;20339;49.754;20.158;2023-05-07T00:01:47;96719.90;;;10.35;90.83
34065;BME280;20339;49.754;20.158;2023-05-07T00:04:18;96720.11;;;10.34;90.80
34065;BME280;20339;49.754;20.158;2023-05-07T00:06:50;96715.90;;;10.32;91.17
34065;BME280;20339;49.754;20.158;2023-05-07T00:09:21;96712.15;;;10.29;91.32
34065;BME280;20339;49.754;20.158;2023-05-07T00:11:52;96718.92;;;10.26;91.45
34065;BME280;20339;49.754;20.158;2023-05-07T00:14:23;96719.91;;;10.23;91.40
34065;BME280;20339;49.754;20.158;2023-05-07T00:16:57;96719.59;;;10.21;91.48
34065;BME280;20339;49.754;20.158;2023-05-07T00:19:28;96718.48;;;10.19;91.66
34065;BME280;20339;49.754;20.158;2023-05-07T00:21:59;96718.70;;;10.16;91.44
34065;BME280;20339;49.754;20.158;2023-05-07T00:24:30;96718.86;;;10.14;91.47
34065;BME280;20339;49.754;20.158;2023-05-07T00:27:01;96716.53;;;10.12;91.39
34065;BME280;20339;49.754;20.158;2023-05-07T00:29:33;96718.28;;;10.11;91.37
34065;BME280;20339;49.754;20.158;2023-05-07T00:32:06;96713.78;;;10.11;91.34
34065;BME280;20339;49.754;20.158;2023-05-07T00:34:37;96717.44;;;10.11;91.33
34065;BME280;20339;49.754;20.158;2023-05-07T00:37:09;96720.56;;;10.10;91.38
34065;BME280;20339;49.754;20.158;2023-05-07T00:39:41;96723.27;;;10.10;91.44
34065;BME280;20339;49.754;20.158;2023-05-07T00:42:15;96719.03;;;10.10;91.26
34065;BME280;20339;49.754;20.158;2023-05-07T00:44:46;96722.47;;;10.11;91.24
34065;BME280;20339;49.754;20.158;2023-05-07T00:47:17;96726.88;;;10.10;91.16
34065;BME280;20339;49.754;20.158;2023-05-07T00:49:48;96728.11;;;10.09;91.28
34065;BME280;20339;49.754;20.158;2023-05-07T00:52:21;96727.99;;;10.08;91.36
34065;BME280;20339;49.754;20.158;2023-05-07T00:54:53;96729.96;;;10.06;91.55
34065;BME280;20339;49.754;20.158;2023-05-07T00:57:26;96728.53;;;10.07;91.71
34065;BME280;20339;49.754;20.158;2023-05-07T00:59:57;96728.21;;;10.08;91.75
34065;BME280;20339;49.754;20.158;2023-05-07T01:02:28;96726.24;;;10.08;91.82
34065;BME280;20339;49.754;20.158;2023-05-07T01:04:59;96729.90;;;10.08;91.96
34065;BME280;20339;49.754;20.158;2023-05-07T01:07:31;96727.09;;;10.08;92.02
34065;BME280;20339;49.754;20.158;2023-05-07T01:10:03;96732.83;;;10.08;91.94
34065;BME280;20339;49.754;20.158;2023-05-07T01:12:37;96736.26;;;10.10;91.91
34065;BME280;20339;49.754;20.158;2023-05-07T01:15:10;96735.94;;;10.09;91.79
34065;BME280;20339;49.754;20.158;2023-05-07T01:17:41;96733.14;;;10.08;91.74
34065;BME280;20339;49.754;20.158;2023-05-07T01:20:13;96736.48;;;10.07;91.57
34065;BME280;20339;49.754;20.158;2023-05-07T01:22:45;96738.28;;;10.07;91.40
34065;BME280;20339;49.754;20.158;2023-05-07T01:25:16;96735.58;;;10.07;91.19
34065;BME280;20339;49.754;20.158;2023-05-07T01:27:47;96734.84;;;10.06;91.05
34065;BME280;20339;49.754;20.158;2023-05-07T01:30:20;96732.30;;;10.07;90.96
34065;BME280;20339;49.754;20.158;2023-05-07T01:32:53;96729.17;;;10.08;90.76
34065;BME280;20339;49.754;20.158;2023-05-07T01:35:29;96734.73;;;10.09;90.43
34065;BME280;20339;49.754;20.158;2023-05-07T01:38:01;96731.20;;;10.05;90.25
34065;BME280;20339;49.754;20.158;2023-05-07T01:40:35;96736.40;;;10.03;90.15
34065;BME280;20339;49.754;20.158;2023-05-07T01:43:07;96732.92;;;10.01;90.15
34065;BME280;20339;49.754;20.158;2023-05-07T01:45:39;96736.62;;;9.99;90.02
34065;BME280;20339;49.754;20.158;2023-05-07T01:48:11;96731.74;;;9.96;89.91
34065;BME280;20339;49.754;20.158;2023-05-07T01:50:44;96732.67;;;9.93;90.12
34065;BME280;20339;49.754;20.158;2023-05-07T01:53:15;96731.10;;;9.90;90.16
34065;BME280;20339;49.754;20.158;2023-05-07T01:55:46;96730.41;;;9.88;90.28
34065;BME280;20339;49.754;20.158;2023-05-07T01:58:17;96736.63;;;9.87;90.26
34065;BME280;20339;49.754;20.158;2023-05-07T02:00:48;96734.70;;;9.85;90.46
34065;BME280;20339;49.754;20.158;2023-05-07T02:03:19;96735.39;;;9.85;90.57
34065;BME280;20339;49.754;20.158;2023-05-07T02:05:50;96734.65;;;9.85;90.61
34065;BME280;20339;49.754;20.158;2023-05-07T02:08:21;96733.42;;;9.85;90.69
34065;BME280;20339;49.754;20.158;2023-05-07T02:10:52;96730.41;;;9.84;90.67
34065;BME280;20339;49.754;20.158;2023-05-07T02:13:23;96727.56;;;9.82;90.63
34065;BME280;20339;49.754;20.158;2023-05-07T02:15:55;96728.10;;;9.81;90.66
34065;BME280;20339;49.754;20.158;2023-05-07T02:18:26;96726.62;;;9.80;90.59
34065;BME280;20339;49.754;20.158;2023-05-07T02:20:57;96723.82;;;9.80;90.60
34065;BME280;20339;49.754;20.158;2023-05-07T02:23:28;96722.66;;;9.78;90.49
34065;BME280;20339;49.754;20.158;2023-05-07T02:25:59;96716.54;;;9.75;90.61
34065;BME280;20339;49.754;20.158;2023-05-07T02:28:30;96721.36;;;9.74;90.54
34065;BME280;20339;49.754;20.158;2023-05-07T02:31:00;96724.86;;;9.72;90.49
34065;BME280;20339;49.754;20.158;2023-05-07T02:33:32;96731.77;;;9.70;90.44
34065;BME280;20339;49.754;20.158;2023-05-07T02:36:11;96731.73;;;9.68;90.44
34065;BME280;20339;49.754;20.158;2023-05-07T02:38:42;96730.89;;;9.67;90.15
34065;BME280;20339;49.754;20.158;2023-05-07T02:41:13;96730.68;;;9.66;89.98
34065;BME280;20339;49.754;20.158;2023-05-07T02:43:44;96735.61;;;9.66;89.90
34065;BME280;20339;49.754;20.158;2023-05-07T02:46:15;96733.13;;;9.66;89.71
34065;BME280;20339;49.754;20.158;2023-05-07T02:48:46;96736.57;;;9.64;89.55
34065;BME280;20339;49.754;20.158;2023-05-07T02:51:19;96738.17;;;9.62;89.53
34065;BME280;20339;49.754;20.158;2023-05-07T02:53:50;96734.69;;;9.57;89.57
34065;BME280;20339;49.754;20.158;2023-05-07T02:56:21;96736.37;;;9.55;89.74
34065;BME280;20339;49.754;20.158;2023-05-07T02:58:52;96739.55;;;9.56;89.84
34065;BME280;20339;49.754;20.158;2023-05-07T03:01:23;96737.70;;;9.55;89.98
34065;BME280;20339;49.754;20.158;2023-05-07T03:03:55;96742.99;;;9.53;90.08
34065;BME280;20339;49.754;20.158;2023-05-07T03:06:26;96742.95;;;9.53;90.01
34065;BME280;20339;49.754;20.158;2023-05-07T03:08:57;96742.20;;;9.52;90.17
34065;BME280;20339;49.754;20.158;2023-05-07T03:11:28;96745.23;;;9.51;90.06
34065;BME280;20339;49.754;20.158;2023-05-07T03:13:59;96745.39;;;9.50;90.36
34065;BME280;20339;49.754;20.158;2023-05-07T03:16:30;96747.13;;;9.50;90.46
34065;BME280;20339;49.754;20.158;2023-05-07T03:19:01;96752.70;;;9.49;90.57
34065;BME280;20339;49.754;20.158;2023-05-07T03:21:32;96757.72;;;9.50;90.78
34065;BME280;20339;49.754;20.158;2023-05-07T03:24:04;96755.60;;;9.50;91.03
34065;BME280;20339;49.754;20.158;2023-05-07T03:26:35;96762.06;;;9.49;91.07
34065;BME280;20339;49.754;20.158;2023-05-07T03:29:06;96767.15;;;9.48;91.13
34065;BME280;20339;49.754;20.158;2023-05-07T03:31:37;96763.70;;;9.50;91.30
34065;BME280;20339;49.754;20.158;2023-05-07T03:34:08;96765.96;;;9.52;91.33
34065;BME280;20339;49.754;20.158;2023-05-07T03:36:39;96770.52;;;9.53;91.22
34065;BME280;20339;49.754;20.158;2023-05-07T03:39:09;96773.27;;;9.54;91.38
34065;BME280;20339;49.754;20.158;2023-05-07T03:41:40;96775.65;;;9.55;91.37
34065;BME280;20339;49.754;20.158;2023-05-07T03:44:11;96775.70;;;9.55;91.34
34065;BME280;20339;49.754;20.158;2023-05-07T03:46:42;96778.98;;;9.57;91.35
34065;BME280;20339;49.754;20.158;2023-05-07T03:49:13;96778.31;;;9.59;91.22
34065;BME280;20339;49.754;20.158;2023-05-07T03:51:44;96780.27;;;9.61;91.34
34065;BME280;20339;49.754;20.158;2023-05-07T03:54:15;96783.43;;;9.61;91.25
34065;BME280;20339;49.754;20.158;2023-05-07T03:56:46;96790.05;;;9.62;91.27
34065;BME280;20339;49.754;20.158;2023-05-07T03:59:17;96797.14;;;9.65;91.24
34065;BME280;20339;49.754;20.158;2023-05-07T04:01:48;96793.73;;;9.66;91.15
34065;BME280;20339;49.754;20.158;2023-05-07T04:04:19;96794.38;;;9.67;91.13
34065;BME280;20339;49.754;20.158;2023-05-07T04:06:50;96795.02;;;9.62;91.32
34065;BME280;20339;49.754;20.158;2023-05-07T04:09:22;96797.83;;;9.56;91.40
34065;BME280;20339;49.754;20.158;2023-05-07T04:11:53;96801.00;;;9.54;91.35
34065;BME280;20339;49.754;20.158;2023-05-07T04:14:24;96807.89;;;9.52;91.52
34065;BME280;20339;49.754;20.158;2023-05-07T04:16:55;96813.52;;;9.51;91.75
34065;BME280;20339;49.754;20.158;2023-05-07T04:19:26;96809.17;;;9.48;92.06
34065;BME280;20339;49.754;20.158;2023-05-07T04:21:57;96817.79;;;9.40;92.05
34065;BME280;20339;49.754;20.158;2023-05-07T04:24:30;96817.54;;;9.36;92.04
34065;BME280;20339;49.754;20.158;2023-05-07T04:27:01;96813.84;;;9.32;92.21
34065;BME280;20339;49.754;20.158;2023-05-07T04:29:32;96822.67;;;9.30;92.16
34065;BME280;20339;49.754;20.158;2023-05-07T04:32:03;96823.92;;;9.27;92.25
34065;BME280;20339;49.754;20.158;2023-05-07T04:34:35;96825.52;;;9.26;92.44
34065;BME280;20339;49.754;20.158;2023-05-07T04:37:06;96826.89;;;9.20;92.28
34065;BME280;20339;49.754;20.158;2023-05-07T04:39:37;96833.41;;;9.21;92.40
34065;BME280;20339;49.754;20.158;2023-05-07T04:42:08;96839.11;;;9.22;92.68
34065;BME280;20339;49.754;20.158;2023-05-07T04:44:39;96843.40;;;9.19;92.62
34065;BME280;20339;49.754;20.158;2023-05-07T04:47:10;96849.22;;;9.15;92.57
34065;BME280;20339;49.754;20.158;2023-05-07T04:49:41;96855.73;;;9.16;92.79
34065;BME280;20339;49.754;20.158;2023-05-07T04:52:13;96855.79;;;9.17;92.91
34065;BME280;20339;49.754;20.158;2023-05-07T04:54:44;96859.43;;;9.21;93.08
34065;BME280;20339;49.754;20.158;2023-05-07T04:57:15;96860.91;;;9.21;93.09
34065;BME280;20339;49.754;20.158;2023-05-07T04:59:47;96860.59;;;9.20;93.00
34065;BME280;20339;49.754;20.158;2023-05-07T05:02:18;96864.93;;;9.20;92.94
34065;BME280;20339;49.754;20.158;2023-05-07T05:04:49;96865.04;;;9.17;93.00
34065;BME280;20339;49.754;20.158;2023-05-07T05:07:20;96864.14;;;9.16;93.13
34065;BME280;20339;49.754;20.158;2023-05-07T05:09:51;96868.90;;;9.19;93.45
34065;BME280;20339;49.754;20.158;2023-05-07T05:12:22;96869.00;;;9.20;93.41
34065;BME280;20339;49.754;20.158;2023-05-07T05:14:53;96878.85;;;9.22;93.36
34065;BME280;20339;49.754;20.158;2023-05-07T05:17:25;96875.83;;;9.25;93.49
34065;BME280;20339;49.754;20.158;2023-05-07T05:19:56;96879.90;;;9.24;93.15
34065;BME280;20339;49.754;20.158;2023-05-07T05:22:27;96880.64;;;9.23;93.27
34065;BME280;20339;49.754;20.158;2023-05-07T05:24:59;96883.23;;;9.24;93.40
34065;BME280;20339;49.754;20.158;2023-05-07T05:27:30;96881.38;;;9.26;93.34
34065;BME280;20339;49.754;20.158;2023-05-07T05:30:01;96884.67;;;9.29;93.46
34065;BME280;20339;49.754;20.158;2023-05-07T05:32:33;96884.36;;;9.34;93.52
34065;BME280;20339;49.754;20.158;2023-05-07T05:35:05;96890.45;;;9.37;93.34
34065;BME280;20339;49.754;20.158;2023-05-07T05:37:36;96888.98;;;9.36;93.17
34065;BME280;20339;49.754;20.158;2023-05-07T05:40:12;96890.82;;;9.37;93.35
34065;BME280;20339;49.754;20.158;2023-05-07T05:42:43;96894.36;;;9.41;93.43
34065;BME280;20339;49.754;20.158;2023-05-07T05:45:14;96894.63;;;9.42;93.33
34065;BME280;20339;49.754;20.158;2023-05-07T05:47:45;96900.69;;;9.43;93.27
34065;BME280;20339;49.754;20.158;2023-05-07T05:50:17;96900.95;;;9.46;93.29
34065;BME280;20339;49.754;20.158;2023-05-07T05:52:48;96908.63;;;9.48;93.08
34065;BME280;20339;49.754;20.158;2023-05-07T05:55:20;96908.66;;;9.39;92.81
34065;BME280;20339;49.754;20.158;2023-05-07T05:57:51;96908.36;;;9.20;92.96
34065;BME280;20339;49.754;20.158;2023-05-07T06:00:23;96913.09;;;9.07;92.95
34065;BME280;20339;49.754;20.158;2023-05-07T06:02:55;96916.61;;;8.98;93.59
34065;BME280;20339;49.754;20.158;2023-05-07T06:05:26;96915.65;;;8.83;93.42
34065;BME280;20339;49.754;20.158;2023-05-07T06:07:57;96916.29;;;8.81;93.73
34065;BME280;20339;49.754;20.158;2023-05-07T06:10:29;96918.04;;;8.85;93.96
34065;BME280;20339;49.754;20.158;2023-05-07T06:13:01;96917.94;;;8.86;93.86
34065;BME280;20339;49.754;20.158;2023-05-07T06:15:33;96921.04;;;8.89;93.86
34065;BME280;20339;49.754;20.158;2023-05-07T06:18:04;96923.47;;;8.93;93.96
34065;BME280;20339;49.754;20.158;2023-05-07T06:20:35;96925.70;;;8.97;93.83
34065;BME280;20339;49.754;20.158;2023-05-07T06:23:07;96928.02;;;8.99;93.72
34065;BME280;20339;49.754;20.158;2023-05-07T06:25:38;96930.30;;;8.97;93.65
34065;BME280;20339;49.754;20.158;2023-05-07T06:28:09;96927.28;;;8.96;93.50
34065;BME280;20339;49.754;20.158;2023-05-07T06:30:41;96933.04;;;8.92;93.35
34065;BME280;20339;49.754;20.158;2023-05-07T06:33:12;96938.39;;;8.91;93.56
34065;BME280;20339;49.754;20.158;2023-05-07T06:35:43;96938.75;;;8.92;93.44
34065;BME280;20339;49.754;20.158;2023-05-07T06:38:15;96942.03;;;8.92;93.44
34065;BME280;20339;49.754;20.158;2023-05-07T06:40:49;96939.54;;;8.90;93.17
34065;BME280;20339;49.754;20.158;2023-05-07T06:43:20;96941.60;;;8.89;93.38
34065;BME280;20339;49.754;20.158;2023-05-07T06:45:52;96939.94;;;8.86;93.07
34065;BME280;20339;49.754;20.158;2023-05-07T06:48:23;96946.85;;;8.82;93.11
34065;BME280;20339;49.754;20.158;2023-05-07T06:51:02;96950.80;;;8.78;93.11
34065;BME280;20339;49.754;20.158;2023-05-07T06:53:40;96953.23;;;8.74;93.05
34065;BME280;20339;49.754;20.158;2023-05-07T06:56:14;96956.70;;;8.74;93.24
34065;BME280;20339;49.754;20.158;2023-05-07T06:58:45;96959.13;;;8.72;93.17
34065;BME280;20339;49.754;20.158;2023-05-07T07:01:16;96962.46;;;8.72;93.35
34065;BME280;20339;49.754;20.158;2023-05-07T07:03:47;96963.55;;;8.72;93.12
34065;BME280;20339;49.754;20.158;2023-05-07T07:06:18;96970.16;;;8.69;92.91
34065;BME280;20339;49.754;20.158;2023-05-07T07:08:49;96972.54;;;8.69;92.82
34065;BME280;20339;49.754;20.158;2023-05-07T07:11:20;96971.42;;;8.67;92.64
34065;BME280;20339;49.754;20.158;2023-05-07T07:13:51;96977.52;;;8.62;92.49
34065;BME280;20339;49.754;20.158;2023-05-07T07:16:23;96980.39;;;8.56;92.40
34065;BME280;20339;49.754;20.158;2023-05-07T07:18:54;96986.55;;;8.51;92.34
34065;BME280;20339;49.754;20.158;2023-05-07T07:21:26;96987.84;;;8.38;92.55
34065;BME280;20339;49.754;20.158;2023-05-07T07:23:57;96990.77;;;8.21;92.84
34065;BME280;20339;49.754;20.158;2023-05-07T07:26:28;96990.96;;;8.05;93.53
34065;BME280;20339;49.754;20.158;2023-05-07T07:28:59;96991.94;;;7.89;94.12
34065;BME280;20339;49.754;20.158;2023-05-07T07:31:30;96998.11;;;7.84;94.15
34065;BME280;20339;49.754;20.158;2023-05-07T07:34:01;97006.13;;;7.77;94.96
34065;BME280;20339;49.754;20.158;2023-05-07T07:36:57;97006.38;;;7.59;95.15
34065;BME280;20339;49.754;20.158;2023-05-07T07:39:42;97014.14;;;7.64;95.87
34065;BME280;20339;49.754;20.158;2023-05-07T07:42:16;97015.14;;;7.63;95.85
34065;BME280;20339;49.754;20.158;2023-05-07T07:44:50;97016.47;;;7.65;95.73
34065;BME280;20339;49.754;20.158;2023-05-07T07:47:22;97017.84;;;7.76;96.00
34065;BME280;20339;49.754;20.158;2023-05-07T07:50:00;97014.18;;;7.86;95.85
34065;BME280;20339;49.754;20.158;2023-05-07T07:55:09;97018.61;;;7.97;95.29
34065;BME280;20339;49.754;20.158;2023-05-07T07:57:46;97025.45;;;8.01;95.14
34065;BME280;20339;49.754;20.158;2023-05-07T08:00:18;97029.77;;;8.05;95.19
34065;BME280;20339;49.754;20.158;2023-05-07T08:02:55;97031.69;;;8.06;94.74
34065;BME280;20339;49.754;20.158;2023-05-07T08:05:27;97036.48;;;8.03;94.58
34065;BME280;20339;49.754;20.158;2023-05-07T08:08:00;97037.58;;;8.02;94.63
34065;BME280;20339;49.754;20.158;2023-05-07T08:10:32;97042.46;;;8.02;94.59
34065;BME280;20339;49.754;20.158;2023-05-07T08:13:09;97044.27;;;8.02;94.47
34065;BME280;20339;49.754;20.158;2023-05-07T08:15:40;97049.95;;;8.05;94.33
34065;BME280;20339;49.754;20.158;2023-05-07T08:18:12;97051.27;;;8.06;94.25
34065;BME280;20339;49.754;20.158;2023-05-07T08:20:43;97051.75;;;8.05;94.20
34065;BME280;20339;49.754;20.158;2023-05-07T08:23:16;97055.88;;;8.07;94.35
34065;BME280;20339;49.754;20.158;2023-05-07T08:25:55;97057.47;;;8.08;94.12
34065;BME280;20339;49.754;20.158;2023-05-07T08:28:27;97056.56;;;8.07;94.06
34065;BME280;20339;49.754;20.158;2023-05-07T08:31:01;97058.66;;;8.00;93.71
34065;BME280;20339;49.754;20.158;2023-05-07T08:33:37;97063.00;;;7.89;93.51
34065;BME280;20339;49.754;20.158;2023-05-07T08:36:10;97066.55;;;7.79;93.58
34065;BME280;20339;49.754;20.158;2023-05-07T08:38:44;97072.39;;;7.84;94.07
34065;BME280;20339;49.754;20.158;2023-05-07T08:41:18;97074.31;;;7.91;94.18
34065;BME280;20339;49.754;20.158;2023-05-07T08:43:51;97078.81;;;7.99;94.16
34065;BME280;20339;49.754;20.158;2023-05-07T08:46:23;97082.89;;;8.04;94.30
34065;BME280;20339;49.754;20.158;2023-05-07T08:48:57;97084.95;;;8.11;94.22
34065;BME280;20339;49.754;20.158;2023-05-07T08:51:28;97084.40;;;8.19;94.21
34065;BME280;20339;49.754;20.158;2023-05-07T08:54:02;97087.33;;;8.22;93.90
34065;BME280;20339;49.754;20.158;2023-05-07T08:56:35;97089.79;;;8.19;93.52
34065;BME280;20339;49.754;20.158;2023-05-07T08:59:07;97090.90;;;8.15;93.37
34065;BME280;20339;49.754;20.158;2023-05-07T09:01:39;97089.92;;;8.17;93.44
34065;BME280;20339;49.754;20.158;2023-05-07T09:04:11;97092.92;;;8.22;93.48
34065;BME280;20339;49.754;20.158;2023-05-07T09:06:43;97095.13;;;8.26;93.36
34065;BME280;20339;49.754;20.158;2023-05-07T09:09:15;97092.11;;;8.30;93.31
34065;BME280;20339;49.754;20.158;2023-05-07T09:11:58;97098.92;;;8.40;93.56
34065;BME280;20339;49.754;20.158;2023-05-07T09:14:30;97105.17;;;8.47;93.18
34065;BME280;20339;49.754;20.158;2023-05-07T09:17:02;97109.89;;;8.49;93.10
34065;BME280;20339;49.754;20.158;2023-05-07T09:19:34;97114.14;;;8.46;92.82
34065;BME280;20339;49.754;20.158;2023-05-07T09:22:07;97116.77;;;8.40;92.37
34065;BME280;20339;49.754;20.158;2023-05-07T09:24:38;97120.98;;;8.33;92.20
34065;BME280;20339;49.754;20.158;2023-05-07T09:27:10;97128.05;;;8.21;91.97
34065;BME280;20339;49.754;20.158;2023-05-07T09:29:44;97130.88;;;8.17;92.22
34065;BME280;20339;49.754;20.158;2023-05-07T09:32:16;97135.45;;;8.16;92.15
34065;BME280;20339;49.754;20.158;2023-05-07T09:34:49;97133.80;;;8.20;92.33
34065;BME280;20339;49.754;20.158;2023-05-07T09:37:21;97139.95;;;8.23;92.33
34065;BME280;20339;49.754;20.158;2023-05-07T09:39:52;97141.47;;;8.28;92.42
34065;BME280;20339;49.754;20.158;2023-05-07T09:42:30;97144.57;;;8.34;92.54
34065;BME280;20339;49.754;20.158;2023-05-07T09:45:03;97142.91;;;8.37;92.27
34065;BME280;20339;49.754;20.158;2023-05-07T09:47:39;97144.86;;;8.29;91.88
34065;BME280;20339;49.754;20.158;2023-05-07T09:50:16;97148.58;;;8.24;91.89
34065;BME280;20339;49.754;20.158;2023-05-07T09:52:50;97146.66;;;8.18;91.69
34065;BME280;20339;49.754;20.158;2023-05-07T09:55:25;97149.96;;;8.11;91.73
34065;BME280;20339;49.754;20.158;2023-05-07T09:57:59;97153.97;;;8.09;91.93
34065;BME280;20339;49.754;20.158;2023-05-07T10:00:33;97157.30;;;8.11;92.25
34065;BME280;20339;49.754;20.158;2023-05-07T10:03:07;97157.74;;;8.17;92.28
34065;BME280;20339;49.754;20.158;2023-05-07T10:05:41;97161.42;;;8.19;92.00
34065;BME280;20339;49.754;20.158;2023-05-07T10:08:14;97157.13;;;8.17;91.79
34065;BME280;20339;49.754;20.158;2023-05-07T10:10:47;97154.34;;;8.18;92.01
34065;BME280;20339;49.754;20.158;2023-05-07T10:13:20;97157.53;;;8.27;92.16
34065;BME280;20339;49.754;20.158;2023-05-07T10:15:52;97158.17;;;8.43;92.29
34065;BME280;20339;49.754;20.158;2023-05-07T10:18:24;97160.27;;;8.53;92.24
34065;BME280;20339;49.754;20.158;2023-05-07T10:21:04;97159.30;;;8.60;91.93
34065;BME280;20339;49.754;20.158;2023-05-07T10:23:38;97159.48;;;8.59;91.63
34065;BME280;20339;49.754;20.158;2023-05-07T10:26:09;97168.17;;;8.57;91.60
34065;BME280;20339;49.754;20.158;2023-05-07T10:28:43;97168.96;;;8.60;91.56
34065;BME280;20339;49.754;20.158;2023-05-07T10:31:37;97173.48;;;8.63;91.32
34065;BME280;20339;49.754;20.158;2023-05-07T10:34:18;97178.52;;;8.59;91.01
34065;BME280;20339;49.754;20.158;2023-05-07T10:36:53;97180.77;;;8.53;90.88
34065;BME280;20339;49.754;20.158;2023-05-07T10:39:25;97182.72;;;8.51;90.87
34065;BME280;20339;49.754;20.158;2023-05-07T10:41:57;97185.16;;;8.53;91.00
34065;BME280;20339;49.754;20.158;2023-05-07T10:44:29;97185.98;;;8.55;90.90
34065;BME280;20339;49.754;20.158;2023-05-07T10:47:11;97187.52;;;8.56;90.89
34065;BME280;20339;49.754;20.158;2023-05-07T10:56:26;97191.91;;;8.50;90.35
34065;BME280;20339;49.754;20.158;2023-05-07T10:59:32;97191.77;;;8.51;90.33
34065;BME280;20339;49.754;20.158;2023-05-07T11:02:06;97194.61;;;8.51;90.48
34065;BME280;20339;49.754;20.158;2023-05-07T11:04:40;97194.08;;;8.50;90.17
34065;BME280;20339;49.754;20.158;2023-05-07T11:07:34;97201.19;;;8.47;90.08
34065;BME280;20339;49.754;20.158;2023-05-07T11:10:09;97204.34;;;8.40;89.96
34065;BME280;20339;49.754;20.158;2023-05-07T11:12:55;97202.27;;;8.34;90.14
34065;BME280;20339;49.754;20.158;2023-05-07T11:15:39;97203.80;;;8.27;89.96
34065;BME280;20339;49.754;20.158;2023-05-07T11:18:15;97201.46;;;8.20;89.80
34065;BME280;20339;49.754;20.158;2023-05-07T11:20:55;97203.36;;;8.16;90.03
34065;BME280;20339;49.754;20.158;2023-05-07T11:23:57;97203.20;;;8.15;90.31
34065;BME280;20339;49.754;20.158;2023-05-07T11:26:31;97207.86;;;8.16;90.40
34065;BME280;20339;49.754;20.158;2023-05-07T11:29:15;97207.88;;;8.14;90.26
34065;BME280;20339;49.754;20.158;2023-05-07T11:31:50;97210.02;;;8.02;89.86
34065;BME280;20339;49.754;20.158;2023-05-07T11:34:25;97213.41;;;7.94;90.23
34065;BME280;20339;49.754;20.158;2023-05-07T11:36:57;97216.09;;;7.88;90.28
34065;BME280;20339;49.754;20.158;2023-05-07T11:39:30;97219.91;;;7.86;90.42
34065;BME280;20339;49.754;20.158;2023-05-07T11:42:03;97222.45;;;7.87;90.44
34065;BME280;20339;49.754;20.158;2023-05-07T11:44:45;97232.33;;;7.83;90.49
34065;BME280;20339;49.754;20.158;2023-05-07T11:47:20;97236.95;;;7.73;90.25
34065;BME280;20339;49.754;20.158;2023-05-07T11:49:54;97241.27;;;7.66;90.31
34065;BME280;20339;49.754;20.158;2023-05-07T11:52:27;97241.27;;;7.63;90.55
34065;BME280;20339;49.754;20.158;2023-05-07T11:55:00;97246.11;;;7.61;90.65
34065;BME280;20339;49.754;20.158;2023-05-07T11:57:34;97248.33;;;7.59;90.87
34065;BME280;20339;49.754;20.158;2023-05-07T12:00:11;97249.96;;;7.54;90.71
34065;BME280;20339;49.754;20.158;2023-05-07T12:02:43;97247.25;;;7.49;90.70
34065;BME280;20339;49.754;20.158;2023-05-07T12:05:14;97246.91;;;7.47;90.84
34065;BME280;20339;49.754;20.158;2023-05-07T12:07:46;97246.78;;;7.46;90.82
34065;BME280;20339;49.754;20.158;2023-05-07T12:10:18;97250.55;;;7.46;90.80
34065;BME280;20339;49.754;20.158;2023-05-07T12:12:51;97251.78;;;7.49;90.98
34065;BME280;20339;49.754;20.158;2023-05-07T12:15:25;97252.99;;;7.45;90.90
34065;BME280;20339;49.754;20.158;2023-05-07T12:17:56;97252.25;;;7.42;91.01
34065;BME280;20339;49.754;20.158;2023-05-07T12:20:28;97254.38;;;7.39;90.91
34065;BME280;20339;49.754;20.158;2023-05-07T12:23:00;97258.30;;;7.39;91.17
34065;BME280;20339;49.754;20.158;2023-05-07T12:25:32;97260.13;;;7.42;91.43
34065;BME280;20339;49.754;20.158;2023-05-07T12:28:07;97265.33;;;7.41;91.32
34065;BME280;20339;49.754;20.158;2023-05-07T12:30:40;97264.55;;;7.33;91.02
34065;BME280;20339;49.754;20.158;2023-05-07T12:33:14;97265.17;;;7.31;91.28
34065;BME280;20339;49.754;20.158;2023-05-07T12:35:48;97267.19;;;7.31;91.23
34065;BME280;20339;49.754;20.158;2023-05-07T12:38:20;97265.73;;;7.30;91.24
34065;BME280;20339;49.754;20.158;2023-05-07T12:40:53;97263.95;;;7.31;91.34
34065;BME280;20339;49.754;20.158;2023-05-07T12:43:26;97266.77;;;7.24;91.31
34065;BME280;20339;49.754;20.158;2023-05-07T12:46:00;97265.29;;;7.18;91.21
34065;BME280;20339;49.754;20.158;2023-05-07T12:48:32;97271.48;;;7.16;91.44
34065;BME280;20339;49.754;20.158;2023-05-07T12:51:04;97275.92;;;7.12;91.40
34065;BME280;20339;49.754;20.158;2023-05-07T12:53:40;97278.61;;;7.09;91.22
34065;BME280;20339;49.754;20.158;2023-05-07T12:56:12;97277.38;;;7.08;91.30
34065;BME280;20339;49.754;20.158;2023-05-07T12:58:48;97277.83;;;7.06;91.34
34065;BME280;20339;49.754;20.158;2023-05-07T13:01:19;97282.89;;;7.04;91.43
34065;BME280;20339;49.754;20.158;2023-05-07T13:03:51;97286.89;;;7.01;91.32
34065;BME280;20339;49.754;20.158;2023-05-07T13:06:22;97282.31;;;6.97;91.32
34065;BME280;20339;49.754;20.158;2023-05-07T13:08:53;97284.54;;;6.95;91.23
34065;BME280;20339;49.754;20.158;2023-05-07T13:11:24;97288.10;;;6.93;91.55
34065;BME280;20339;49.754;20.158;2023-05-07T13:13:55;97285.95;;;6.94;91.65
34065;BME280;20339;49.754;20.158;2023-05-07T13:16:26;97288.69;;;6.97;91.72
34065;BME280;20339;49.754;20.158;2023-05-07T13:18:58;97292.58;;;6.99;91.93
34065;BME280;20339;49.754;20.158;2023-05-07T13:21:29;97292.80;;;6.98;91.65
34065;BME280;20339;49.754;20.158;2023-05-07T13:24:01;97292.71;;;6.95;91.59
34065;BME280;20339;49.754;20.158;2023-05-07T13:26:33;97293.20;;;6.92;91.62
34065;BME280;20339;49.754;20.158;2023-05-07T13:29:04;97293.94;;;6.90;91.68
34065;BME280;20339;49.754;20.158;2023-05-07T13:31:35;97292.56;;;6.84;92.01
34065;BME280;20339;49.754;20.158;2023-05-07T13:34:06;97293.30;;;6.80;91.78
34065;BME280;20339;49.754;20.158;2023-05-07T13:36:38;97295.35;;;6.79;92.06
34065;BME280;20339;49.754;20.158;2023-05-07T13:39:11;97296.50;;;6.79;91.99